createdAt,value
2023-11-28T00:02:17.137Z,92702.81
2023-11-28T00:04:45.151Z,92684.13
2023-11-28T00:07:12.920Z,92695.84
2023-11-28T00:09:40.326Z,92691.50
2023-11-28T00:12:08.539Z,92682.75
2023-11-28T00:14:35.979Z,92689.91
2023-11-28T00:17:04.074Z,92699.19
2023-11-28T00:19:31.988Z,92675.41
2023-11-28T00:21:59.408Z,92686.69
2023-11-28T00:24:27.270Z,92679.41
2023-11-28T00:26:55.209Z,92676.06
2023-11-28T00:29:22.818Z,92667.56
2023-11-28T00:31:50.405Z,92671.25
2023-11-28T00:34:18.932Z,92663.69
2023-11-28T00:36:46.417Z,92664.69
2023-11-28T00:39:14.881Z,92669.44
2023-11-28T00:41:42.745Z,92673.00
2023-11-28T00:44:11.169Z,92666.66
2023-11-28T00:46:42.979Z,92666.06
2023-11-28T00:49:14.245Z,92673.19
2023-11-28T00:51:45.500Z,92674.19
2023-11-28T00:54:13.512Z,92660.19
2023-11-28T00:56:40.977Z,92661.37
2023-11-28T00:59:08.477Z,92667.97
2023-11-28T01:01:36.369Z,92657.66
2023-11-28T01:04:04.140Z,92654.66
2023-11-28T01:06:32.646Z,92662.97
2023-11-28T01:09:00.556Z,92650.66
2023-11-28T01:11:28.057Z,92646.31
2023-11-28T01:13:55.910Z,92641.19
2023-11-28T01:16:24.132Z,92638.84
2023-11-28T01:18:52.610Z,92637.28
2023-11-28T01:21:20.158Z,92628.75
2023-11-28T01:23:48.078Z,92631.09
2023-11-28T01:26:15.528Z,92628.28
2023-11-28T01:28:44.425Z,92619.41
2023-11-28T01:31:13.443Z,92612.44
2023-11-28T01:33:41.113Z,92621.13
2023-11-28T01:36:09.167Z,92615.97
2023-11-28T01:38:38.646Z,92625.13
2023-11-28T01:41:06.668Z,92621.56
2023-11-28T01:43:35.701Z,92613.03
2023-11-28T01:46:10.894Z,92607.69
2023-11-28T01:48:39.761Z,92614.66
2023-11-28T01:51:08.414Z,92614.63
2023-11-28T01:53:37.669Z,92611.06
2023-11-28T01:56:05.836Z,92610.63
2023-11-28T01:58:33.986Z,92608.84
2023-11-28T02:01:01.915Z,92606.44
2023-11-28T02:03:30.433Z,92600.31
2023-11-28T02:05:58.810Z,92599.53
2023-11-28T02:08:27.500Z,92595.16
2023-11-28T02:10:55.396Z,92595.38
2023-11-28T02:13:22.852Z,92587.25
2023-11-28T02:15:51.462Z,92583.63
2023-11-28T02:18:19.048Z,92580.28
2023-11-28T02:20:46.746Z,92577.69
2023-11-28T02:23:15.322Z,92582.19
2023-11-28T02:25:51.367Z,92583.59
2023-11-28T02:28:20.567Z,92577.69
2023-11-28T02:30:49.083Z,92579.09
2023-11-28T02:33:17.615Z,92582.47
2023-11-28T02:35:46.917Z,92582.88
2023-11-28T02:38:15.053Z,92570.22
2023-11-28T02:40:43.458Z,92565.06
2023-11-28T02:43:11.700Z,92561.25
2023-11-28T02:45:39.154Z,92566.03
2023-11-28T02:48:06.816Z,92560.91
2023-11-28T02:50:34.663Z,92561.69
2023-11-28T02:53:02.388Z,92551.59
2023-11-28T02:55:29.984Z,92544.25
2023-11-28T02:57:59.956Z,92547.03
2023-11-28T03:00:27.825Z,92550.19
2023-11-28T03:02:55.583Z,92551.59
2023-11-28T03:05:23.496Z,92545.84
2023-11-28T03:07:52.753Z,92542.06
2023-11-28T03:10:20.684Z,92533.34
2023-11-28T03:12:49.949Z,92532.56
2023-11-28T03:15:17.477Z,92516.53
2023-11-28T03:17:46.201Z,92518.88
2023-11-28T03:20:14.340Z,92517.09
2023-11-28T03:22:42.301Z,92516.09
2023-11-28T03:25:12.997Z,92512.94
2023-11-28T03:27:41.095Z,92510.16
2023-11-28T03:30:09.238Z,92509.94
2023-11-28T03:32:37.229Z,92508.19
2023-11-28T03:35:05.751Z,92505.41
2023-11-28T03:37:33.343Z,92512.53
2023-11-28T03:40:02.449Z,92501.06
2023-11-28T03:42:30.354Z,92498.69
2023-11-28T03:44:57.807Z,92493.91
2023-11-28T03:47:25.398Z,92483.22
2023-11-28T03:49:53.358Z,92486.97
2023-11-28T03:52:20.853Z,92477.44
2023-11-28T03:54:48.481Z,92475.88
2023-11-28T03:57:16.356Z,92471.13
2023-11-28T03:59:44.302Z,92466.56
2023-11-28T04:02:11.891Z,92468.16
2023-11-28T04:04:39.954Z,92473.47
2023-11-28T04:07:07.805Z,92479.84
2023-11-28T04:09:35.788Z,92463.78
2023-11-28T04:12:03.773Z,92459.44
2023-11-28T04:14:31.341Z,92467.53
2023-11-28T04:16:58.789Z,92464.38
2023-11-28T04:19:26.683Z,92457.06
2023-11-28T04:21:54.615Z,92443.59
2023-11-28T04:24:22.097Z,92452.69
2023-11-28T04:26:50.146Z,92453.06
2023-11-28T04:29:19.648Z,92440.59
2023-11-28T04:31:47.377Z,92455.87
2023-11-28T04:34:15.529Z,92446.34
2023-11-28T04:36:43.132Z,92451.09
2023-11-28T04:39:12.745Z,92451.09
2023-11-28T04:41:40.672Z,92442.78
2023-11-28T04:44:08.878Z,92442.97
2023-11-28T04:46:36.735Z,92436.25
2023-11-28T04:49:04.636Z,92439.63
2023-11-28T04:51:32.287Z,92443.34
2023-11-28T04:54:00.039Z,92420.97
2023-11-28T04:56:28.825Z,92443.16
2023-11-28T04:58:56.730Z,92418.41
2023-11-28T05:01:26.752Z,92429.72
2023-11-28T05:03:54.944Z,92412.25
2023-11-28T05:06:23.980Z,92397.22
2023-11-28T05:08:51.758Z,92394.44
2023-11-28T05:11:20.591Z,92393.22
2023-11-28T05:13:48.576Z,92393.25
2023-11-28T05:16:16.236Z,92391.66
2023-11-28T05:18:44.499Z,92388.47
2023-11-28T05:21:14.420Z,92382.94
2023-11-28T05:23:43.766Z,92362.34
2023-11-28T05:26:12.272Z,92357.78
2023-11-28T05:28:39.989Z,92356.22
2023-11-28T05:31:09.102Z,92360.38
2023-11-28T05:33:37.309Z,92358.41
2023-11-28T05:36:07.496Z,92341.37
2023-11-28T05:38:35.782Z,92341.37
2023-11-28T05:41:05.062Z,92335.63
2023-11-28T05:43:34.049Z,92337.81
2023-11-28T05:46:02.215Z,92336.19
2023-11-28T05:48:31.059Z,92338.78
2023-11-28T05:50:59.351Z,92338.41
2023-11-28T05:53:27.098Z,92335.22
2023-11-28T05:55:55.071Z,92324.53
2023-11-28T05:58:22.781Z,92299.78
2023-11-28T06:00:51.053Z,92304.75
2023-11-28T06:03:19.303Z,92287.91
2023-11-28T06:05:47.059Z,92294.25
2023-11-28T06:08:15.376Z,92291.06
2023-11-28T06:10:44.230Z,92292.66
2023-11-28T06:13:12.359Z,92290.88
2023-11-28T06:15:39.884Z,92287.09
2023-11-28T06:18:09.259Z,92287.91
2023-11-28T06:20:38.517Z,92289.69
2023-11-28T06:23:06.166Z,92280.16
2023-11-28T06:25:34.116Z,92279.59
2023-11-28T06:28:01.755Z,92280.75
2023-11-28T06:30:29.279Z,92269.09
2023-11-28T06:32:57.197Z,92264.16
2023-11-28T06:35:26.291Z,92245.34
2023-11-28T06:37:53.795Z,92245.34
2023-11-28T06:40:22.746Z,92244.53
2023-11-28T06:42:50.265Z,92260.19
2023-11-28T06:45:17.958Z,92266.28
2023-11-28T06:47:45.905Z,92265.72
2023-11-28T06:50:14.968Z,92257.75
2023-11-28T06:52:43.584Z,92257.37
2023-11-28T06:55:11.693Z,92246.88
2023-11-28T06:57:39.355Z,92240.13
2023-11-28T07:00:08.624Z,92238.38
2023-11-28T07:02:37.716Z,92226.87
2023-11-28T07:05:06.195Z,92223.72
2023-11-28T07:07:34.163Z,92219.53
2023-11-28T07:10:02.073Z,92216.56
2023-11-28T07:12:29.652Z,92211.41
2023-11-28T07:14:57.549Z,92219.13
2023-11-28T07:17:27.411Z,92231.56
2023-11-28T07:19:54.981Z,92236.72
2023-11-28T07:22:22.558Z,92221.69
2023-11-28T07:24:50.546Z,92210.75
2023-11-28T07:27:18.239Z,92196.06
2023-11-28T07:29:45.916Z,92175.19
2023-11-28T07:32:13.969Z,92174.03
2023-11-28T07:34:41.609Z,92177.62
2023-11-28T07:37:09.575Z,92174.38
2023-11-28T07:39:37.485Z,92175.63
2023-11-28T07:42:06.229Z,92166.53
2023-11-28T07:44:33.794Z,92163.41
2023-11-28T07:47:01.671Z,92148.16
2023-11-28T07:49:29.238Z,92149.16
2023-11-28T07:51:56.754Z,92151.37
2023-11-28T07:54:24.563Z,92142.66
2023-11-28T07:56:52.064Z,92136.31
2023-11-28T07:59:19.607Z,92137.47
2023-11-28T08:01:47.575Z,92127.37
2023-11-28T08:04:16.227Z,92123.19
2023-11-28T08:06:43.767Z,92137.69
2023-11-28T08:09:11.221Z,92120.66
2023-11-28T08:11:39.667Z,92132.38
2023-11-28T08:14:08.718Z,92134.94
2023-11-28T08:16:36.987Z,92143.28
2023-11-28T08:19:05.031Z,92135.00
2023-11-28T08:21:32.672Z,92123.31
2023-11-28T08:24:02.109Z,92123.09
2023-11-28T08:26:30.055Z,92108.84
2023-11-28T08:28:57.751Z,92092.44
2023-11-28T08:31:25.732Z,92098.72
2023-11-28T08:33:53.778Z,92101.12
2023-11-28T08:36:21.384Z,92105.03
2023-11-28T08:38:48.988Z,92101.25
2023-11-28T08:41:16.868Z,92082.06
2023-11-28T08:43:44.622Z,92076.88
2023-11-28T08:46:15.600Z,92074.25
2023-11-28T08:48:43.646Z,92065.06
2023-11-28T08:51:11.162Z,92055.09
2023-11-28T08:53:39.509Z,92055.56
2023-11-28T08:56:13.384Z,92039.22
2023-11-28T08:58:41.276Z,92045.06
2023-11-28T09:01:09.478Z,92034.94
2023-11-28T09:03:37.214Z,92038.69
2023-11-28T09:06:04.967Z,92025.94
2023-11-28T09:08:33.091Z,92010.16
2023-11-28T09:11:01.076Z,92010.69
2023-11-28T09:13:28.814Z,91992.56
2023-11-28T09:15:57.365Z,92000.75
2023-11-28T09:18:29.073Z,91995.44
2023-11-28T09:20:57.244Z,91993.03
2023-11-28T09:23:26.463Z,91993.03
2023-11-28T09:26:02.423Z,91996.88
2023-11-28T09:28:34.048Z,91981.47
2023-11-28T09:31:02.290Z,91988.13
2023-11-28T09:33:30.363Z,91969.47
2023-11-28T09:35:58.610Z,91972.31
2023-11-28T09:38:26.301Z,91951.09
2023-11-28T09:40:55.090Z,91945.28
2023-11-28T09:43:27.903Z,91946.81
2023-11-28T09:46:02.595Z,91940.81
2023-11-28T09:48:31.862Z,91937.87
2023-11-28T09:51:02.828Z,91937.87
2023-11-28T09:53:37.927Z,91928.78
2023-11-28T09:56:08.383Z,91930.88
2023-11-28T09:58:38.147Z,91913.03
2023-11-28T10:01:08.089Z,91907.84
2023-11-28T10:03:36.345Z,91908.31
2023-11-28T10:06:05.065Z,91898.25
2023-11-28T10:08:36.518Z,91889.38
2023-11-28T10:11:06.726Z,91876.31
2023-11-28T10:13:34.230Z,91857.22
2023-11-28T10:16:02.794Z,91851.03
2023-11-28T10:18:32.204Z,91840.00
2023-11-28T10:21:00.071Z,91830.53
2023-11-28T10:23:28.748Z,91835.38
2023-11-28T10:25:57.305Z,91819.81
2023-11-28T10:28:25.318Z,91822.44
2023-11-28T10:30:54.305Z,91810.50
2023-11-28T10:33:23.620Z,91799.25
2023-11-28T10:35:51.500Z,91798.03
2023-11-28T10:38:19.676Z,91780.97
2023-11-28T10:40:50.180Z,91775.22
2023-11-28T10:43:18.579Z,91761.13
2023-11-28T10:45:47.229Z,91747.91
2023-11-28T10:48:16.222Z,91749.13
2023-11-28T10:50:44.885Z,91744.63
2023-11-28T10:53:17.027Z,91733.91
2023-11-28T10:55:51.065Z,91721.13
2023-11-28T10:58:20.460Z,91709.25
2023-11-28T11:00:54.838Z,91703.84
2023-11-28T11:03:25.841Z,91699.63
2023-11-28T11:05:54.281Z,91695.78
2023-11-28T11:08:23.341Z,91698.59
2023-11-28T11:10:52.975Z,91684.97
2023-11-28T11:13:54.889Z,91665.31
2023-11-28T11:16:55.967Z,91665.31
2023-11-28T11:19:25.297Z,91656.16
2023-11-28T11:22:14.769Z,91615.41
2023-11-28T11:24:44.557Z,91624.25
2023-11-28T11:27:12.104Z,91616.28
2023-11-28T11:29:41.846Z,91616.44
2023-11-28T11:32:14.169Z,91620.22
2023-11-28T11:34:43.449Z,91624.37
2023-11-28T11:37:15.193Z,91621.62
2023-11-28T11:39:44.417Z,91625.88
2023-11-28T11:42:18.792Z,91619.25
2023-11-28T11:44:52.465Z,91610.16
2023-11-28T11:47:25.591Z,91601.50
2023-11-28T11:49:54.910Z,91599.19
2023-11-28T11:52:26.642Z,91598.53
2023-11-28T11:55:08.210Z,91587.78
2023-11-28T11:57:38.988Z,91591.41
2023-11-28T12:00:14.804Z,91585.44
2023-11-28T12:02:44.969Z,91567.53
2023-11-28T12:05:13.974Z,91562.87
2023-11-28T12:07:42.873Z,91551.81
2023-11-28T12:10:14.169Z,91548.78
2023-11-28T12:12:42.544Z,91535.81
2023-11-28T12:15:14.050Z,91505.63
2023-11-28T12:17:42.793Z,91499.34
2023-11-28T12:20:12.310Z,91483.38
2023-11-28T12:22:39.878Z,91459.25
2023-11-28T12:25:08.324Z,91463.53
2023-11-28T12:27:35.939Z,91453.91
2023-11-28T12:30:04.603Z,91464.97
2023-11-28T12:32:34.158Z,91486.28
2023-11-28T12:35:02.130Z,91479.06
2023-11-28T12:37:33.513Z,91461.59
2023-11-28T12:40:05.028Z,91450.22
2023-11-28T12:42:32.597Z,91428.59
2023-11-28T12:45:02.432Z,91423.31
2023-11-28T12:47:31.990Z,91421.31
2023-11-28T12:55:38.032Z,91400.41
2023-11-28T12:58:06.048Z,91400.41
2023-11-28T13:00:33.503Z,91403.69
2023-11-28T13:03:02.196Z,91396.25
2023-11-28T13:05:31.136Z,91387.50
2023-11-28T13:07:58.782Z,91394.97
2023-11-28T13:10:26.456Z,91406.88
2023-11-28T13:13:03.740Z,91401.22
2023-11-28T13:15:39.567Z,91395.16
2023-11-28T13:18:07.586Z,91377.94
2023-11-28T13:20:35.241Z,91385.19
2023-11-28T13:23:02.877Z,91380.44
2023-11-28T13:25:30.812Z,91361.91
2023-11-28T13:27:58.830Z,91374.03
2023-11-28T13:30:27.429Z,91346.16
2023-11-28T13:32:58.574Z,91348.19
2023-11-28T13:35:27.033Z,91348.44
2023-11-28T13:37:55.009Z,91350.19
2023-11-28T13:40:22.577Z,91349.81
2023-11-28T13:42:50.264Z,91368.56
2023-11-28T13:45:18.793Z,91359.94
2023-11-28T13:47:46.998Z,91369.62
2023-11-28T13:50:14.892Z,91350.75
2023-11-28T13:52:42.899Z,91347.22
2023-11-28T13:55:10.480Z,91344.94
2023-11-28T13:57:38.065Z,91349.38
2023-11-28T14:00:07.885Z,91351.38
2023-11-28T14:02:43.595Z,91360.88
2023-11-28T14:05:13.852Z,91361.25
2023-11-28T14:07:41.890Z,91367.53
2023-11-28T14:10:10.401Z,91359.78
2023-11-28T14:12:39.779Z,91369.41
2023-11-28T14:15:08.469Z,91364.53
2023-11-28T14:17:37.781Z,91361.19
2023-11-28T14:20:09.331Z,91357.50
2023-11-28T14:22:37.543Z,91364.13
2023-11-28T14:25:05.830Z,91368.00
2023-11-28T14:27:33.397Z,91355.94
2023-11-28T14:30:01.371Z,91360.38
2023-11-28T14:32:29.358Z,91365.78
2023-11-28T14:34:58.691Z,91372.16
2023-11-28T14:37:26.933Z,91369.91
2023-11-28T14:39:54.800Z,91341.41
2023-11-28T14:42:22.512Z,91333.19
2023-11-28T14:44:51.269Z,91349.09
2023-11-28T14:47:19.636Z,91352.13
2023-11-28T14:49:47.361Z,91346.75
2023-11-28T14:52:16.913Z,91335.63
2023-11-28T14:54:44.678Z,91346.03
2023-11-28T14:57:15.052Z,91355.50
2023-11-28T14:59:43.373Z,91354.25
2023-11-28T15:02:11.850Z,91331.72
2023-11-28T15:04:39.534Z,91337.50
2023-11-28T15:07:07.769Z,91340.47
2023-11-28T15:09:35.916Z,91332.72
2023-11-28T15:12:05.396Z,91335.31
2023-11-28T15:14:33.457Z,91317.47
2023-11-28T15:17:02.467Z,91317.00
2023-11-28T15:19:30.087Z,91329.38
2023-11-28T15:21:58.179Z,91311.22
2023-11-28T15:24:27.251Z,91318.59
2023-11-28T15:26:55.617Z,91310.59
2023-11-28T15:29:23.650Z,91297.37
2023-11-28T15:31:54.211Z,91295.59
2023-11-28T15:34:24.267Z,91300.34
2023-11-28T15:36:52.193Z,91303.72
2023-11-28T15:39:19.774Z,91289.87
2023-11-28T15:41:47.251Z,91301.38
2023-11-28T15:44:15.233Z,91318.50
2023-11-28T15:46:46.116Z,91316.62
2023-11-28T15:49:13.762Z,91314.34
2023-11-28T15:51:41.727Z,91312.63
2023-11-28T15:54:09.718Z,91309.03
2023-11-28T15:56:37.495Z,91326.00
2023-11-28T15:59:06.034Z,91313.09
2023-11-28T16:01:33.750Z,91297.06
2023-11-28T16:04:01.704Z,91286.84
2023-11-28T16:06:29.376Z,91313.47
2023-11-28T16:08:57.110Z,91308.22
2023-11-28T16:11:26.104Z,91299.34
2023-11-28T16:13:53.816Z,91294.06
2023-11-28T16:16:23.098Z,91296.44
2023-11-28T16:18:51.113Z,91311.03
2023-11-28T16:21:25.371Z,91301.50
2023-11-28T16:23:53.306Z,91297.44
2023-11-28T16:26:22.576Z,91302.78
2023-11-28T16:28:50.551Z,91294.63
2023-11-28T16:31:22.442Z,91293.78
2023-11-28T16:33:50.292Z,91294.03
2023-11-28T16:36:18.195Z,91303.87
2023-11-28T16:38:45.825Z,91292.81
2023-11-28T16:41:17.591Z,91294.06
2023-11-28T16:43:45.985Z,91291.81
2023-11-28T16:46:13.634Z,91292.75
2023-11-28T16:48:41.272Z,91293.53
2023-11-28T16:51:12.145Z,91292.91
2023-11-28T16:53:39.717Z,91282.50
2023-11-28T16:56:08.368Z,91297.06
2023-11-28T16:58:36.744Z,91297.75
2023-11-28T17:01:06.814Z,91286.88
2023-11-28T17:03:34.804Z,91291.50
2023-11-28T17:06:02.863Z,91287.03
2023-11-28T17:08:30.632Z,91290.94
2023-11-28T17:10:58.235Z,91297.41
2023-11-28T17:13:28.859Z,91285.41
2023-11-28T17:15:56.705Z,91287.38
2023-11-28T17:18:24.615Z,91300.12
2023-11-28T17:20:52.531Z,91294.56
2023-11-28T17:23:21.017Z,91302.63
2023-11-28T17:25:49.437Z,91298.94
2023-11-28T17:28:17.961Z,91300.12
2023-11-28T17:30:46.804Z,91304.19
2023-11-28T17:33:14.558Z,91324.50
2023-11-28T17:35:43.610Z,91328.72
2023-11-28T17:38:11.907Z,91327.91
2023-11-28T17:40:39.622Z,91301.78
2023-11-28T17:43:08.507Z,91306.63
2023-11-28T17:45:38.075Z,91297.31
2023-11-28T17:48:06.206Z,91300.91
2023-11-28T17:50:34.371Z,91300.66
2023-11-28T17:53:02.353Z,91317.09
2023-11-28T17:55:29.979Z,91312.00
2023-11-28T17:57:59.448Z,91309.97
2023-11-28T18:00:27.148Z,91326.78
2023-11-28T18:02:55.312Z,91317.00
2023-11-28T18:05:23.650Z,91300.50
2023-11-28T18:07:51.264Z,91299.78
2023-11-28T18:10:21.707Z,91294.47
2023-11-28T18:12:49.254Z,91299.97
2023-11-28T18:15:26.176Z,91299.84
2023-11-28T18:18:01.920Z,91310.59
2023-11-28T18:20:29.899Z,91320.69
2023-11-28T18:23:00.601Z,91332.97
2023-11-28T18:25:29.110Z,91328.09
2023-11-28T18:27:58.540Z,91345.72
2023-11-28T18:30:26.724Z,91332.81
2023-11-28T18:32:54.947Z,91332.50
2023-11-28T18:35:23.209Z,91328.06
2023-11-28T18:37:51.653Z,91327.63
2023-11-28T18:40:22.877Z,91320.75
2023-11-28T18:42:51.655Z,91331.72
2023-11-28T18:45:21.246Z,91324.03
2023-11-28T18:47:49.956Z,91330.09
2023-11-28T18:50:18.785Z,91325.38
2023-11-28T18:52:50.044Z,91327.59
2023-11-28T18:55:20.415Z,91337.06
2023-11-28T18:57:48.718Z,91332.09
2023-11-28T19:00:21.419Z,91349.31
2023-11-28T19:02:51.716Z,91346.56
2023-11-28T19:05:22.367Z,91364.59
2023-11-28T19:07:51.095Z,91349.31
2023-11-28T19:10:21.209Z,91337.41
2023-11-28T19:12:49.308Z,91347.00
2023-11-28T19:15:17.569Z,91346.69
2023-11-28T19:17:45.324Z,91352.25
2023-11-28T19:20:13.128Z,91348.97
2023-11-28T19:22:41.181Z,91360.69
2023-11-28T19:25:08.980Z,91359.66
2023-11-28T19:27:36.705Z,91350.91
2023-11-28T19:30:05.292Z,91349.09
2023-11-28T19:32:33.029Z,91370.41
2023-11-28T19:35:00.759Z,91363.31
2023-11-28T19:37:29.054Z,91366.78
2023-11-28T19:39:56.599Z,91371.63
2023-11-28T19:42:24.173Z,91375.34
2023-11-28T19:44:52.282Z,91362.12
2023-11-28T19:47:19.878Z,91358.53
2023-11-28T19:49:47.464Z,91377.41
2023-11-28T19:52:15.403Z,91390.59
2023-11-28T19:54:43.078Z,91420.38
2023-11-28T19:57:10.661Z,91436.41
2023-11-28T19:59:41.791Z,91450.44
2023-11-28T20:02:09.515Z,91455.00
2023-11-28T20:04:37.670Z,91464.50
2023-11-28T20:07:05.727Z,91464.47
2023-11-28T20:09:33.361Z,91472.41
2023-11-28T20:12:01.342Z,91466.72
2023-11-28T20:14:29.202Z,91466.06
2023-11-28T20:16:56.932Z,91467.25
2023-11-28T20:19:25.603Z,91482.72
2023-11-28T20:21:54.729Z,91490.72
2023-11-28T20:24:22.290Z,91491.28
2023-11-28T20:26:51.950Z,91495.19
2023-11-28T20:29:19.684Z,91503.03
2023-11-28T20:31:47.250Z,91499.47
2023-11-28T20:34:15.093Z,91507.25
2023-11-28T20:36:42.742Z,91499.84
2023-11-28T20:39:11.107Z,91522.09
2023-11-28T20:41:39.038Z,91510.37
2023-11-28T20:44:08.750Z,91516.56
2023-11-28T20:46:36.773Z,91516.63
2023-11-28T20:49:04.848Z,91528.59
2023-11-28T20:51:32.413Z,91523.19
2023-11-28T20:54:00.080Z,91522.59
2023-11-28T20:56:29.669Z,91514.09
2023-11-28T20:58:57.282Z,91517.25
2023-11-28T21:01:29.945Z,91516.63
2023-11-28T21:03:58.024Z,91520.19
2023-11-28T21:06:25.751Z,91516.53
2023-11-28T21:08:53.630Z,91524.38
2023-11-28T21:11:22.201Z,91531.09
2023-11-28T21:13:49.881Z,91535.19
2023-11-28T21:16:18.940Z,91544.50
2023-11-28T21:18:47.127Z,91542.53
2023-11-28T21:21:24.612Z,91554.72
2023-11-28T21:23:52.995Z,91559.97
2023-11-28T21:26:23.007Z,91572.13
2023-11-28T21:28:51.807Z,91568.78
2023-11-28T21:31:20.068Z,91563.03
2023-11-28T21:33:47.833Z,91560.75
2023-11-28T21:36:17.792Z,91565.41
2023-11-28T21:38:47.173Z,91560.03
2023-11-28T21:41:17.591Z,91572.84
2023-11-28T21:43:46.036Z,91584.13
2023-11-28T21:46:14.307Z,91586.53
2023-11-28T21:48:47.276Z,91596.63
2023-11-28T21:51:15.452Z,91601.13
2023-11-28T21:53:43.888Z,91596.59
2023-11-28T21:56:11.522Z,91603.13
2023-11-28T21:58:39.579Z,91608.00
2023-11-28T22:01:07.384Z,91605.03
2023-11-28T22:03:35.514Z,91606.59
2023-11-28T22:06:05.369Z,91620.78
2023-11-28T22:08:33.099Z,91617.63
2023-11-28T22:11:01.230Z,91625.44
2023-11-28T22:13:28.854Z,91619.25
2023-11-28T22:15:56.542Z,91616.47
2023-11-28T22:18:24.471Z,91607.88
2023-11-28T22:20:52.025Z,91619.69
2023-11-28T22:23:19.646Z,91618.94
2023-11-28T22:25:47.627Z,91602.94
2023-11-28T22:28:18.146Z,91614.88
2023-11-28T22:30:45.744Z,91606.75
2023-11-28T22:33:13.747Z,91605.69
2023-11-28T22:35:41.276Z,91608.22
2023-11-28T22:38:08.931Z,91598.66
2023-11-28T22:40:36.857Z,91596.03
2023-11-28T22:43:04.405Z,91601.81
2023-11-28T22:45:32.822Z,91611.75
2023-11-28T22:48:01.278Z,91604.16
2023-11-28T22:50:30.076Z,91606.63
2023-11-28T22:52:58.312Z,91619.31
2023-11-28T22:55:26.621Z,91628.56
2023-11-28T22:57:54.913Z,91623.53
2023-11-28T23:00:23.619Z,91621.78
2023-11-28T23:02:51.631Z,91633.19
2023-11-28T23:05:19.392Z,91646.66
2023-11-28T23:07:47.009Z,91639.69
2023-11-28T23:10:15.375Z,91640.50
2023-11-28T23:12:42.994Z,91665.47
2023-11-28T23:15:11.324Z,91662.75
2023-11-28T23:17:39.970Z,91668.75
2023-11-28T23:20:08.204Z,91657.94
2023-11-28T23:22:40.479Z,91669.50
2023-11-28T23:25:12.443Z,91678.09
2023-11-28T23:27:40.038Z,91669.47
2023-11-28T23:30:08.324Z,91674.81
2023-11-28T23:32:36.302Z,91677.69
2023-11-28T23:35:04.652Z,91679.59
2023-11-28T23:37:32.364Z,91682.00
2023-11-28T23:40:01.192Z,91683.25
2023-11-28T23:42:30.839Z,91678.47
2023-11-28T23:45:00.590Z,91682.88
2023-11-28T23:47:28.113Z,91686.69
2023-11-28T23:49:55.665Z,91691.66
2023-11-28T23:52:23.715Z,91695.50
2023-11-28T23:54:51.324Z,91705.91
2023-11-28T23:57:18.835Z,91703.59
2023-11-28T23:59:46.814Z,91715.78
